This is the latest recevied weather packets stored in our database for station/object F5IOR-13. If no packets are shown the sender has not sent any weather packets the latest 10 day(s).
| Time | Temp. | Humidity | Pressure | Rain* | Wind** | Luminosity | Snow |
|---|---|---|---|---|---|---|---|
| 1777991909 | 16.67° C | 71% | 980.1 hPa | 7.37 mm | - | - | - |
| 1777988308 | 16.67° C | 69% | 980.8 hPa | 4.06 mm | - | - | - |
| 1777986509 | 16.67° C | 71% | 980.9 hPa | 4.06 mm | - | - | - |
| 1777984709 | 16.11° C | 73% | 980.9 hPa | 4.06 mm | - | - | - |
| 1777982909 | 16.11° C | 75% | 981 hPa | 4.06 mm | - | - | - |
| 1777981109 | 15.56° C | 79% | 981.1 hPa | 4.06 mm | - | - | - |
| 1777979309 | 15° C | 80% | 981.2 hPa | 4.06 mm | - | - | - |
| 1777977510 | 15° C | 80% | 981.2 hPa | 4.06 mm | - | - | - |
| 1777977509 | 15° C | 80% | 981.2 hPa | 4.06 mm | - | - | - |
| 1777975710 | 14.44° C | 80% | 981.2 hPa | 5.08 mm | - | - | - |
| 1777973908 | 14.44° C | 81% | 981.2 hPa | 5.08 mm | - | - | - |
| 1777972949 | 13.89° C | 83% | 981.2 hPa | 5.08 mm | - | - | - |
| 1777971989 | 13.89° C | 84% | 981.2 hPa | 5.08 mm | - | - | - |
| 1777971029 | 13.89° C | 86% | 981 hPa | 5.08 mm | - | - | - |
| 1777970068 | 12.78° C | 92% | 980.8 hPa | 3.3 mm | - | - | - |
| 1777969588 | 12.78° C | 92% | 980.8 hPa | 3.3 mm | - | - | - |
| 1777969108 | 12.78° C | 92% | 980.8 hPa | 3.3 mm | - | - | - |
| 1777968628 | 12.78° C | 92% | 980.8 hPa | 3.3 mm | - | - | - |
| 1777968148 | 12.78° C | 92% | 980.8 hPa | 3.3 mm | - | - | - |
| 1777967909 | 12.22° C | 93% | 980.7 hPa | 3.3 mm | - | - | - |
| 1777967668 | 12.22° C | 93% | 980.7 hPa | 3.3 mm | - | - | - |
| 1777967428 | 12.22° C | 93% | 980.7 hPa | 3.3 mm | - | - | - |
| 1777967189 | 12.22° C | 93% | 980.7 hPa | 3.3 mm | - | - | - |
| 1777967068 | 12.22° C | 93% | 980.7 hPa | 3.3 mm | - | - | - |
| 1777966949 | 12.22° C | 93% | 980.7 hPa | 3.3 mm | - | - | - |
* Rain latest hour (hover to see other rain measurements)
** Current wind speed in m/s (hover to see current wind gust speed)